Etusivu
METAR-TAF:

METAR-TAF

Lentoasemat :

Nancy, Ranska

Leveyspiiri: 48-35N, Pituuspiiri: 005-58E, korkeus merenpinnasta: 336 m

Tämänhetkinen sää

Tämä raportti tehtiin 25 minuuttia sitten, kello 18.30 UTC
Tuuli 3 kn lännestä/lounaasta
Lämpötila 10°C
Kosteus 57%
Ilmanpaine 1019 hPa
Näkyvyys 10 km tai enemmän
ei pilviä alle 1500 m:ssä eikä cumulonimbus-pilviä

METAR: LFSO 261830Z AUTO 25003KT CAVOK 10/02 Q1019 NOSIG

Aika: 20:55 (18:55 UTC)

Sääennuste

Tämä raportti tehtiin 4 tuntia ja 55 minuuttia sitten, kello 14.00 UTC
Ennuste voimassa 26. päivästä klo 15 UTC - 27. päivään klo 15 UTC
Tuuli 10 kn lännestä
Näkyvyys 10 km tai enemmän
ei pilviä alle 1500 m:ssä eikä cumulonimbus-pilviä
Tulossa
26. päivästä klo 19 UTC - 26. päivään klo 21 UTC
Tuuli 2 kn eri suunnista
Tulossa
27. päivästä klo 12 UTC - 27. päivään klo 14 UTC
Tuuli 10 kn lounaasta puuskistuen 20 kn:hen

TAF: LFSO 261400Z 2615/2715 27010KT CAVOK BECMG 2619/2621 VRB02KT BECMG 2712/2714 22010G20KT

Säähavainnot ja -ennusteet yli 4000 lentoasemalta (METAR- ja TAF-raportit).

Käytössä olevat sääasemat on merkitty karttaan keltaisilla ja punaisilla pisteillä.

Aseta hiiri pisteen päälle nähdäksesi sääaseman nimen.

Klikkaa sitten nähdäksesi säähavainnot ja -ennusteet.

Kartan vaihtaminen: klikkaa mustalla rastilla varustettuja vihreitä pisteitä, niin voit zoomata sisään; viivalla varustettua vihreää pistettä, niin voit zoomata ulos tai vihreitä nuolia, niin pääset viereisille kartoille.


METAR-TAF: